CYQY

Sydney / J.A. Douglas McCurdy Airport

Sydney, Nova Scotia, Canada
METAR CYQY 250000Z 21007KT 15SM FEW230 SCT260 09/M01 A3018 RMK CI2CI1 SLP222
Observed Flight Rules
Apr-25 @ 00:00 UTC (35 minutes ago) Visual Flight Rules
Wind Visibility Clouds
210° at 7 knots 15 miles
  • Few at 23,000' AGL
  • Scattered at 26,000' AGL
Temperatures Readings
Current 9°C / 48°F
Dewpoint -1°C / 30°F
Humidity 50%
Altimeter 30.18" Hg
Pressure 1022.2 hPa
Elevation 62
METAR CYQY 250000Z 21007KT 15SM FEW230 SCT260 09/M01 A3018 RMK CI2CI1 SLP222
Observed Flight Rules
Apr-25 @ 00:00 UTC
(35 minutes ago)
VFR
Wind Visibility
210° at 7 knots 15 miles
Clouds
  • Few at 23,000' AGL
  • Scattered at 26,000' AGL
Temperature Dewpoint
9°C / 48°F -1°C / 30°F
Humidity Altimeter Pressure
50% 30.18" Hg 1022.2 hPa